createdAt,value
2016-09-30T00:00:19.146Z,16.6
2016-09-30T00:01:19.245Z,16.61
2016-09-30T00:02:18.481Z,16.57
2016-09-30T00:03:18.715Z,16.69
2016-09-30T00:04:19.114Z,16.61
2016-09-30T00:05:19.130Z,16.6
2016-09-30T00:06:18.028Z,16.43
2016-09-30T00:07:18.413Z,16.43
2016-09-30T00:08:19.065Z,16.58
2016-09-30T00:09:18.976Z,16.68
2016-09-30T00:10:18.377Z,16.38
2016-09-30T00:11:19.024Z,16.23
2016-09-30T00:12:18.995Z,16.27
2016-09-30T00:13:18.555Z,16.36
2016-09-30T00:14:18.859Z,16.48
2016-09-30T00:15:18.538Z,16.5
2016-09-30T00:16:18.303Z,16.45
2016-09-30T00:17:18.272Z,16.46
2016-09-30T00:18:17.911Z,16.45
2016-09-30T00:19:18.767Z,16.43
2016-09-30T00:20:18.850Z,16.45
2016-09-30T00:21:18.720Z,16.45
2016-09-30T00:22:18.407Z,16.57
2016-09-30T00:23:18.396Z,16.6
2016-09-30T00:24:18.809Z,16.6
2016-09-30T00:25:18.131Z,16.6
2016-09-30T00:26:17.394Z,16.75
2016-09-30T00:27:18.745Z,16.57
2016-09-30T00:28:17.436Z,16.61
2016-09-30T00:29:18.714Z,16.69
2016-09-30T00:30:17.913Z,16.79
2016-09-30T00:31:17.954Z,16.66
2016-09-30T00:32:18.703Z,16.6
2016-09-30T00:33:17.279Z,16.56
2016-09-30T00:34:17.908Z,16.63
2016-09-30T00:35:17.913Z,16.6
2016-09-30T00:36:17.913Z,16.58
2016-09-30T00:37:17.308Z,16.57
2016-09-30T00:38:17.609Z,16.72
2016-09-30T00:39:18.172Z,16.72
2016-09-30T00:40:17.885Z,16.83
2016-09-30T00:41:17.906Z,16.76
2016-09-30T00:42:18.536Z,16.68
2016-09-30T00:43:17.250Z,16.66
2016-09-30T00:44:17.440Z,16.68
2016-09-30T00:45:18.066Z,16.66
2016-09-30T00:46:17.824Z,16.74
2016-09-30T00:47:17.782Z,16.69
2016-09-30T00:48:18.039Z,16.79
2016-09-30T00:49:18.288Z,16.63
2016-09-30T00:50:18.392Z,16.58
2016-09-30T00:51:17.759Z,16.61
2016-09-30T00:52:17.787Z,16.58
2016-09-30T00:53:18.347Z,16.6
2016-09-30T00:54:18.347Z,16.61
2016-09-30T00:55:17.666Z,16.46
2016-09-30T00:56:18.166Z,16.28
2016-09-30T00:57:17.490Z,16.41
2016-09-30T00:58:17.644Z,16.39
2016-09-30T00:59:16.960Z,16.31
2016-09-30T01:00:18.264Z,16.41
2016-09-30T01:01:17.814Z,16.42
2016-09-30T01:02:18.234Z,16.63
2016-09-30T01:03:16.964Z,16.39
2016-09-30T01:04:18.224Z,16.45
2016-09-30T01:05:17.774Z,16.48
2016-09-30T01:06:17.736Z,16.54
2016-09-30T01:07:18.167Z,16.45
2016-09-30T01:08:18.087Z,16.43
2016-09-30T01:09:18.107Z,16.43
2016-09-30T01:10:18.107Z,16.46
2016-09-30T01:11:17.430Z,16.35
2016-09-30T01:12:16.762Z,16.42
2016-09-30T01:13:17.415Z,16.51
2016-09-30T01:14:17.408Z,16.5
2016-09-30T01:15:17.348Z,16.43
2016-09-30T01:16:17.350Z,16.35
2016-09-30T01:17:17.977Z,16.32
2016-09-30T01:18:17.576Z,16.39
2016-09-30T01:19:17.283Z,16.45
2016-09-30T01:20:17.294Z,16.42
2016-09-30T01:21:17.270Z,16.45
2016-09-30T01:22:17.916Z,16.51
2016-09-30T01:23:16.576Z,16.53
2016-09-30T01:24:17.899Z,16.6
2016-09-30T01:25:17.577Z,16.56
2016-09-30T01:26:17.842Z,16.57
2016-09-30T01:27:16.756Z,16.45
2016-09-30T01:28:17.406Z,16.54
2016-09-30T01:29:17.466Z,16.48
2016-09-30T01:30:17.765Z,16.38
2016-09-30T01:31:17.351Z,16.36
2016-09-30T01:32:17.131Z,16.28
2016-09-30T01:33:17.723Z,16.32
2016-09-30T01:34:17.765Z,16.46
2016-09-30T01:35:17.043Z,16.48
2016-09-30T01:36:16.957Z,16.41
2016-09-30T01:37:17.028Z,16.38
2016-09-30T01:38:17.682Z,16.48
2016-09-30T01:39:16.986Z,16.43
2016-09-30T01:40:16.574Z,16.45
2016-09-30T01:41:16.298Z,16.46
2016-09-30T01:42:17.172Z,16.41
2016-09-30T01:43:16.793Z,16.42
2016-09-30T01:44:16.899Z,16.46
2016-09-30T01:45:17.407Z,16.56
2016-09-30T01:46:16.880Z,16.56
2016-09-30T01:47:16.727Z,16.39
2016-09-30T01:48:17.523Z,16.46
2016-09-30T01:49:16.660Z,16.46
2016-09-30T01:50:17.352Z,16.24
2016-09-30T01:51:16.063Z,16.42
2016-09-30T01:52:17.024Z,16.31
2016-09-30T01:53:17.434Z,16.48
2016-09-30T01:54:16.744Z,16.46
2016-09-30T01:55:16.330Z,16.32
2016-09-30T01:56:16.962Z,16.43
2016-09-30T01:57:16.634Z,16.15
2016-09-30T01:58:16.287Z,16.26
2016-09-30T01:59:17.344Z,16.31
2016-09-30T02:00:15.941Z,16.28
2016-09-30T02:01:16.753Z,16.31
2016-09-30T02:02:15.902Z,16.36
2016-09-30T02:03:16.613Z,16.45
2016-09-30T02:04:16.609Z,16.41
2016-09-30T02:05:17.110Z,16.5
2016-09-30T02:06:16.549Z,16.51
2016-09-30T02:07:16.661Z,16.57
2016-09-30T02:08:16.776Z,16.48
2016-09-30T02:09:17.055Z,16.43
2016-09-30T02:10:16.744Z,16.54
2016-09-30T02:11:16.483Z,16.28
2016-09-30T02:12:16.724Z,16.27
2016-09-30T02:13:17.119Z,16.31
2016-09-30T02:14:15.791Z,16.35
2016-09-30T02:15:16.339Z,16.31
2016-09-30T02:16:17.077Z,16.31
2016-09-30T02:17:17.041Z,16.38
2016-09-30T02:18:17.065Z,16.35
2016-09-30T02:19:16.396Z,16.39
2016-09-30T02:20:16.456Z,16.43
2016-09-30T02:21:16.604Z,16.39
2016-09-30T02:22:15.829Z,16.48
2016-09-30T02:23:16.826Z,16.39
2016-09-30T02:24:16.119Z,16.34
2016-09-30T02:25:16.343Z,16.34
2016-09-30T02:26:15.777Z,16.39
2016-09-30T02:27:16.267Z,16.46
2016-09-30T02:28:16.327Z,16.46
2016-09-30T02:29:16.449Z,16.41
2016-09-30T02:30:16.207Z,16.36
2016-09-30T02:31:16.827Z,16.43
2016-09-30T02:32:16.734Z,16.42
2016-09-30T02:33:16.205Z,16.42
2016-09-30T02:34:15.915Z,16.42
2016-09-30T02:35:16.238Z,16.45
2016-09-30T02:36:15.621Z,16.34
2016-09-30T02:37:16.370Z,16.36
2016-09-30T02:38:16.301Z,16.2
2016-09-30T02:39:16.064Z,16.31
2016-09-30T02:40:15.990Z,16.27
2016-09-30T02:41:16.294Z,16.34
2016-09-30T02:42:16.657Z,16.27
2016-09-30T02:43:16.053Z,16.23
2016-09-30T02:44:15.841Z,16.23
2016-09-30T02:45:16.276Z,16.27
2016-09-30T02:46:16.177Z,16.35
2016-09-30T02:47:15.928Z,16.27
2016-09-30T02:48:16.593Z,16.28
2016-09-30T02:49:16.146Z,16.26
2016-09-30T02:50:15.479Z,16.27
2016-09-30T02:51:16.130Z,16.17
2016-09-30T02:52:16.496Z,16.36
2016-09-30T02:53:16.104Z,16.27
2016-09-30T02:54:15.714Z,16.36
2016-09-30T02:55:16.223Z,16.23
2016-09-30T02:56:16.043Z,16.27
2016-09-30T02:57:16.046Z,16.16
2016-09-30T02:58:15.740Z,16.17
2016-09-30T02:59:15.096Z,16.31
2016-09-30T03:00:16.377Z,16.23
2016-09-30T03:01:15.836Z,16.26
2016-09-30T03:02:15.579Z,16.24
2016-09-30T03:03:15.775Z,16.26
2016-09-30T03:04:15.592Z,16.32
2016-09-30T03:05:16.348Z,16.27
2016-09-30T03:06:16.293Z,16.31
2016-09-30T03:07:16.315Z,16.34
2016-09-30T03:08:15.591Z,16.36
2016-09-30T03:09:15.176Z,16.34
2016-09-30T03:10:15.402Z,16.27
2016-09-30T03:11:15.489Z,16.12
2016-09-30T03:12:15.528Z,16.15
2016-09-30T03:13:16.216Z,16.2
2016-09-30T03:14:15.503Z,16.23
2016-09-30T03:15:16.216Z,16.17
2016-09-30T03:16:16.130Z,16.16
2016-09-30T03:17:15.705Z,16.27
2016-09-30T03:18:15.701Z,16.23
2016-09-30T03:19:15.675Z,16.2
2016-09-30T03:20:15.927Z,16.1
2016-09-30T03:21:15.275Z,16.16
2016-09-30T03:22:15.371Z,16.1
2016-09-30T03:23:15.324Z,16.13
2016-09-30T03:24:15.998Z,16.23
2016-09-30T03:25:14.917Z,16.15
2016-09-30T03:26:16.001Z,16.23
2016-09-30T03:27:15.966Z,16.21
2016-09-30T03:28:14.577Z,16.12
2016-09-30T03:29:15.622Z,16.24
2016-09-30T03:30:14.857Z,16.36
2016-09-30T03:31:15.884Z,16.27
2016-09-30T03:32:15.533Z,16.17
2016-09-30T03:33:14.483Z,16.21
2016-09-30T03:34:15.293Z,16.27
2016-09-30T03:35:15.196Z,16.17
2016-09-30T03:36:15.683Z,16.21
2016-09-30T03:37:15.791Z,16.15
2016-09-30T03:38:15.797Z,16.16
2016-09-30T03:39:15.640Z,16.28
2016-09-30T03:40:15.017Z,16.24
2016-09-30T03:41:15.746Z,16.24
2016-09-30T03:42:15.718Z,16.23
2016-09-30T03:43:14.561Z,16.15
2016-09-30T03:44:15.021Z,16.23
2016-09-30T03:45:15.674Z,16.24
2016-09-30T03:46:15.666Z,16.21
2016-09-30T03:47:15.635Z,16.21
2016-09-30T03:48:14.555Z,16.23
2016-09-30T03:49:14.967Z,16.21
2016-09-30T03:50:14.945Z,16.26
2016-09-30T03:51:15.636Z,16.21
2016-09-30T03:52:15.556Z,16.16
2016-09-30T03:53:15.400Z,16.17
2016-09-30T03:54:14.474Z,16.26
2016-09-30T03:55:15.526Z,16.26
2016-09-30T03:56:15.526Z,16.28
2016-09-30T03:57:15.346Z,16.32
2016-09-30T03:58:14.846Z,16.38
2016-09-30T03:59:14.725Z,16.24
2016-09-30T04:00:14.766Z,16.27
2016-09-30T04:01:14.854Z,16.15
2016-09-30T04:02:14.788Z,16.05
2016-09-30T04:03:14.576Z,16.08
2016-09-30T04:04:15.373Z,16.01
2016-09-30T04:05:15.370Z,16.08
2016-09-30T04:06:15.326Z,16.2
2016-09-30T04:07:14.929Z,16.17
2016-09-30T04:08:14.650Z,16.07
2016-09-30T04:09:15.385Z,16.04
2016-09-30T04:10:14.449Z,16.1
2016-09-30T04:11:14.607Z,16.07
2016-09-30T04:12:14.866Z,16.07
2016-09-30T04:13:14.577Z,15.98
2016-09-30T04:14:15.217Z,16.04
2016-09-30T04:15:13.821Z,16.01
2016-09-30T04:16:14.795Z,16.07
2016-09-30T04:17:15.176Z,16.1
2016-09-30T04:18:15.143Z,16.15
2016-09-30T04:19:14.506Z,16.08
2016-09-30T04:20:14.398Z,16.13
2016-09-30T04:21:14.385Z,16.23
2016-09-30T04:22:13.805Z,16.26
2016-09-30T04:23:15.086Z,16.2
2016-09-30T04:24:15.074Z,16.23
2016-09-30T04:25:14.380Z,16.21
2016-09-30T04:26:14.360Z,16.32
2016-09-30T04:27:14.615Z,16.2
2016-09-30T04:28:14.220Z,16.08
2016-09-30T04:29:13.847Z,16.1
2016-09-30T04:30:14.954Z,16.04
2016-09-30T04:31:14.806Z,16.15
2016-09-30T04:32:14.907Z,16.21
2016-09-30T04:33:14.929Z,16.2
2016-09-30T04:34:14.262Z,16.23
2016-09-30T04:35:14.216Z,16.02
2016-09-30T04:36:14.875Z,15.98
2016-09-30T04:37:14.194Z,15.94
2016-09-30T04:38:14.453Z,15.86
2016-09-30T04:39:15.016Z,15.67
2016-09-30T04:40:14.225Z,15.65
2016-09-30T04:41:14.811Z,15.76
2016-09-30T04:42:14.774Z,15.79
2016-09-30T04:43:14.777Z,15.71
2016-09-30T04:44:14.097Z,15.82
2016-09-30T04:45:14.738Z,15.76
2016-09-30T04:46:13.977Z,15.89
2016-09-30T04:47:13.921Z,15.89
2016-09-30T04:48:13.968Z,15.8
2016-09-30T04:49:14.257Z,15.8
2016-09-30T04:50:14.663Z,15.72
2016-09-30T04:51:13.972Z,15.77
2016-09-30T04:52:13.387Z,15.71
2016-09-30T04:53:14.630Z,15.68
2016-09-30T04:54:13.936Z,15.72
2016-09-30T04:55:14.545Z,15.68
2016-09-30T04:56:13.265Z,15.79
2016-09-30T04:57:13.537Z,15.86
2016-09-30T04:58:14.400Z,15.92
2016-09-30T04:59:13.857Z,16
2016-09-30T05:00:13.886Z,15.89
2016-09-30T05:01:13.707Z,15.83
2016-09-30T05:02:13.866Z,15.9
2016-09-30T05:03:13.787Z,15.94
2016-09-30T05:04:13.122Z,15.9
2016-09-30T05:05:14.142Z,15.86
2016-09-30T05:06:13.731Z,15.77
2016-09-30T05:07:14.397Z,15.79
2016-09-30T05:08:13.728Z,15.75
2016-09-30T05:09:14.347Z,15.77
2016-09-30T05:10:13.274Z,15.94
2016-09-30T05:11:14.303Z,15.97
2016-09-30T05:12:14.309Z,16.01
2016-09-30T05:13:12.895Z,16
2016-09-30T05:14:14.114Z,16.02
2016-09-30T05:15:13.838Z,15.98
2016-09-30T05:16:13.804Z,15.8
2016-09-30T05:17:14.107Z,15.8
2016-09-30T05:18:13.803Z,15.77
2016-09-30T05:19:14.068Z,15.77
2016-09-30T05:20:13.548Z,15.89
2016-09-30T05:21:14.152Z,15.92
2016-09-30T05:22:12.827Z,15.98
2016-09-30T05:23:13.717Z,15.72
2016-09-30T05:24:13.053Z,15.77
2016-09-30T05:25:13.448Z,15.98
2016-09-30T05:26:13.418Z,16.1
2016-09-30T05:27:13.333Z,16.15
2016-09-30T05:28:13.408Z,16.12
2016-09-30T05:29:13.378Z,16.21
2016-09-30T05:30:13.598Z,16.08
2016-09-30T05:31:12.617Z,16.23
2016-09-30T05:32:13.415Z,16.1
2016-09-30T05:33:13.568Z,16.23
2016-09-30T05:34:13.985Z,16.23
2016-09-30T05:35:13.192Z,16.16
2016-09-30T05:36:12.530Z,15.94
2016-09-30T05:37:13.918Z,16
2016-09-30T05:38:13.280Z,16.04
2016-09-30T05:39:13.220Z,16.13
2016-09-30T05:40:12.546Z,16.12
2016-09-30T05:41:13.699Z,16.23
2016-09-30T05:42:12.373Z,16.28
2016-09-30T05:43:13.177Z,16.32
2016-09-30T05:44:13.807Z,16.36
2016-09-30T05:45:13.128Z,16.32
2016-09-30T05:46:13.136Z,16.17
2016-09-30T05:47:13.754Z,16.26
2016-09-30T05:48:13.090Z,16.17
2016-09-30T05:49:13.067Z,16.27
2016-09-30T05:50:13.321Z,16.23
2016-09-30T05:51:13.036Z,16.2
2016-09-30T05:52:13.005Z,16.16
2016-09-30T05:53:13.023Z,16.24
2016-09-30T05:54:13.039Z,16.34
2016-09-30T05:55:13.464Z,16.36
2016-09-30T05:56:12.303Z,16.41
2016-09-30T05:57:13.679Z,16.51
2016-09-30T05:58:13.169Z,16.54
2016-09-30T05:59:13.415Z,16.61
2016-09-30T06:00:13.649Z,16.61
2016-09-30T06:01:12.896Z,16.48
2016-09-30T06:02:12.856Z,16.54
2016-09-30T06:03:12.774Z,16.6
2016-09-30T06:04:13.478Z,16.64
2016-09-30T06:05:13.137Z,16.58
2016-09-30T06:06:13.434Z,16.63
2016-09-30T06:07:12.366Z,16.56
2016-09-30T06:08:13.011Z,16.46
2016-09-30T06:09:12.258Z,16.57
2016-09-30T06:10:13.447Z,16.34
2016-09-30T06:11:12.069Z,16.36
2016-09-30T06:12:12.553Z,16.51
2016-09-30T06:13:12.591Z,16.41
2016-09-30T06:14:12.693Z,16.48
2016-09-30T06:15:12.008Z,16.48
2016-09-30T06:16:13.314Z,16.51
2016-09-30T06:17:13.284Z,16.45
2016-09-30T06:18:13.275Z,16.43
2016-09-30T06:19:12.175Z,16.46
2016-09-30T06:20:12.578Z,16.36
2016-09-30T06:21:13.227Z,16.24
2016-09-30T06:22:12.465Z,16.24
2016-09-30T06:23:12.776Z,16.36
2016-09-30T06:24:12.344Z,16.38
2016-09-30T06:25:12.080Z,16.45
2016-09-30T06:26:12.491Z,16.46
2016-09-30T06:27:13.138Z,16.36
2016-09-30T06:28:13.125Z,16.28
2016-09-30T06:29:13.112Z,16.16
2016-09-30T06:30:12.421Z,16.21
2016-09-30T06:31:12.663Z,16.12
2016-09-30T06:32:12.388Z,16.15
2016-09-30T06:33:13.138Z,16.27
2016-09-30T06:34:12.126Z,16.23
2016-09-30T06:35:13.004Z,16.34
2016-09-30T06:36:12.995Z,16.13
2016-09-30T06:37:12.316Z,16.17
2016-09-30T06:38:12.303Z,16.23
2016-09-30T06:39:12.292Z,16.2
2016-09-30T06:40:12.496Z,16.17
2016-09-30T06:41:12.899Z,16.13
2016-09-30T06:42:12.905Z,16.21
2016-09-30T06:43:12.719Z,16.28
2016-09-30T06:44:12.440Z,16.32
2016-09-30T06:45:12.848Z,16.39
2016-09-30T06:46:12.167Z,16.17
2016-09-30T06:47:11.986Z,16.26
2016-09-30T06:48:12.800Z,16.26
2016-09-30T06:49:12.121Z,16.35
2016-09-30T06:50:12.362Z,16.46
2016-09-30T06:51:12.050Z,16.6
2016-09-30T06:52:12.717Z,16.6
2016-09-30T06:53:12.725Z,16.39
2016-09-30T06:54:11.315Z,16.28
2016-09-30T06:55:12.665Z,16.48
2016-09-30T06:56:12.010Z,16.34
2016-09-30T06:57:11.262Z,16.2
2016-09-30T06:58:11.998Z,16.28
2016-09-30T06:59:12.597Z,16.38
2016-09-30T07:00:11.222Z,16.39
2016-09-30T07:01:11.530Z,16.57
2016-09-30T07:02:11.964Z,16.66
2016-09-30T07:03:12.407Z,16.53
2016-09-30T07:04:11.899Z,16.32
2016-09-30T07:05:12.133Z,16.21
2016-09-30T07:06:11.691Z,16.17
2016-09-30T07:07:11.196Z,16.17
2016-09-30T07:08:11.421Z,16.21
2016-09-30T07:09:11.828Z,16.32
2016-09-30T07:10:12.465Z,16.28
2016-09-30T07:11:11.784Z,16.17
2016-09-30T07:12:12.431Z,16.31
2016-09-30T07:13:11.975Z,16.43
2016-09-30T07:14:11.978Z,16.6
2016-09-30T07:15:11.981Z,16.75
2016-09-30T07:16:12.364Z,16.78
2016-09-30T07:17:10.954Z,16.83
2016-09-30T07:18:11.929Z,16.9
2016-09-30T07:19:11.729Z,17
2016-09-30T07:20:11.502Z,16.9
2016-09-30T07:21:11.753Z,17
2016-09-30T07:22:10.873Z,17.08
2016-09-30T07:23:11.376Z,17.08
2016-09-30T07:24:11.424Z,17.18
2016-09-30T07:25:11.571Z,16.98
2016-09-30T07:26:11.554Z,16.91
2016-09-30T07:27:11.563Z,16.9
2016-09-30T07:28:12.173Z,16.94
2016-09-30T07:29:12.156Z,17.11
2016-09-30T07:30:11.407Z,16.91
2016-09-30T07:31:10.817Z,16.9
2016-09-30T07:32:12.108Z,16.93
2016-09-30T07:33:12.073Z,16.74
2016-09-30T07:34:11.667Z,16.93
2016-09-30T07:35:11.008Z,16.79
2016-09-30T07:36:12.039Z,16.9
2016-09-30T07:37:11.233Z,17.05
2016-09-30T07:38:11.997Z,17.08
2016-09-30T07:39:12.021Z,17.05
2016-09-30T07:40:11.345Z,17.11
2016-09-30T07:41:11.643Z,17.06
2016-09-30T07:42:11.987Z,17.06
2016-09-30T07:43:11.963Z,17.14
2016-09-30T07:44:10.884Z,17.12
2016-09-30T07:45:11.271Z,17.03
2016-09-30T07:46:11.364Z,17.15
2016-09-30T07:47:11.893Z,17.15
2016-09-30T07:48:11.209Z,17.12
2016-09-30T07:49:11.931Z,17.14
2016-09-30T07:50:11.204Z,17.11
2016-09-30T07:51:11.336Z,17.24
2016-09-30T07:52:11.802Z,17.09
2016-09-30T07:53:11.845Z,17.05
2016-09-30T07:54:11.637Z,17.16
2016-09-30T07:55:11.818Z,17.21
2016-09-30T07:56:11.101Z,17.16
2016-09-30T07:57:11.077Z,17.37
2016-09-30T07:58:10.642Z,17.44
2016-09-30T07:59:11.044Z,17.24
2016-09-30T08:00:10.383Z,17.08
2016-09-30T08:01:10.353Z,17.08
2016-09-30T08:02:11.007Z,17.08
2016-09-30T08:03:11.215Z,17.09
2016-09-30T08:04:10.244Z,17.16
2016-09-30T08:05:10.314Z,17.06
2016-09-30T08:06:10.785Z,17.3
2016-09-30T08:07:10.924Z,17.42
2016-09-30T08:08:10.844Z,17.51
2016-09-30T08:09:10.485Z,17.44
2016-09-30T08:10:10.218Z,17.4
2016-09-30T08:11:11.528Z,17.19
2016-09-30T08:12:10.211Z,17.15
2016-09-30T08:13:10.609Z,17.29
2016-09-30T08:14:10.162Z,17.36
2016-09-30T08:15:10.399Z,17.31
2016-09-30T08:16:11.432Z,17.19
2016-09-30T08:17:10.135Z,17.19
2016-09-30T08:18:10.692Z,17.24
2016-09-30T08:19:10.608Z,17.51
2016-09-30T08:20:10.715Z,17.62
2016-09-30T08:21:10.623Z,17.64
2016-09-30T08:22:10.697Z,17.77
2016-09-30T08:23:10.047Z,17.98
2016-09-30T08:24:10.016Z,17.95
2016-09-30T08:25:10.664Z,18.12
2016-09-30T08:26:10.643Z,18.42
2016-09-30T08:27:10.662Z,18.51
2016-09-30T08:28:11.255Z,18.67
2016-09-30T08:29:09.962Z,18.9
2016-09-30T08:30:09.937Z,18.9
2016-09-30T08:31:11.260Z,19.22
2016-09-30T08:32:10.481Z,18.77
2016-09-30T08:33:11.207Z,18.52
2016-09-30T08:34:10.536Z,18.35
2016-09-30T08:35:10.531Z,18.29
2016-09-30T08:36:10.431Z,18.41
2016-09-30T08:37:10.742Z,18.33
2016-09-30T08:38:10.471Z,18.75
2016-09-30T08:39:10.491Z,18.75
2016-09-30T08:40:11.106Z,18.87
2016-09-30T08:41:11.180Z,19.23
2016-09-30T08:42:10.018Z,19.25
2016-09-30T08:43:10.653Z,19.18
2016-09-30T08:44:09.771Z,19.26
2016-09-30T08:45:10.418Z,19.44
2016-09-30T08:46:11.071Z,18.88
2016-09-30T08:47:10.257Z,19.21
2016-09-30T08:48:10.383Z,19.48
2016-09-30T08:49:09.940Z,19.53
2016-09-30T08:50:10.484Z,19.86
2016-09-30T08:51:10.567Z,20.04
2016-09-30T08:52:10.550Z,20.18
2016-09-30T08:53:09.646Z,19.99
2016-09-30T08:54:10.549Z,19.76
2016-09-30T08:55:10.949Z,20.25
2016-09-30T08:56:10.536Z,20.49
2016-09-30T08:57:10.283Z,20.87
2016-09-30T08:58:10.267Z,21.33
2016-09-30T08:59:10.503Z,21.44
2016-09-30T09:00:10.204Z,21.43
2016-09-30T09:01:10.873Z,21.09
2016-09-30T09:02:10.738Z,20.26
2016-09-30T09:03:10.721Z,19.67
2016-09-30T09:04:10.216Z,19.02
2016-09-30T09:05:10.438Z,19.43
2016-09-30T09:06:09.562Z,19.19
2016-09-30T09:07:10.803Z,19.34
2016-09-30T09:08:10.919Z,19.18
2016-09-30T09:09:10.152Z,19.4
2016-09-30T09:10:09.771Z,19.83
2016-09-30T09:11:10.802Z,19.92
2016-09-30T09:12:09.463Z,19.8
2016-09-30T09:13:09.583Z,19.95
2016-09-30T09:14:09.401Z,19.83
2016-09-30T09:15:10.092Z,20.17
2016-09-30T09:16:10.651Z,20.38
2016-09-30T09:17:09.425Z,20.23
2016-09-30T09:18:09.646Z,20.36
2016-09-30T09:19:10.342Z,20.31
2016-09-30T09:20:09.372Z,20.23
2016-09-30T09:21:09.963Z,20.32
2016-09-30T09:22:10.677Z,20.23
2016-09-30T09:23:10.021Z,19.77
2016-09-30T09:24:10.009Z,19.76
2016-09-30T09:25:10.006Z,20.18
2016-09-30T09:26:09.814Z,19.8
2016-09-30T09:27:10.207Z,19.81
2016-09-30T09:28:10.606Z,20.17
2016-09-30T09:29:09.950Z,20.36
2016-09-30T09:30:10.619Z,20.48
2016-09-30T09:31:10.451Z,20.88
2016-09-30T09:32:09.542Z,21.33
2016-09-30T09:33:09.813Z,21.4
2016-09-30T09:34:09.474Z,21.18
2016-09-30T09:35:09.908Z,20.64
2016-09-30T09:36:09.872Z,20.57
2016-09-30T09:37:10.107Z,20.55
2016-09-30T09:38:09.123Z,20.49
2016-09-30T09:39:09.166Z,19.96
2016-09-30T09:40:10.486Z,19.74
2016-09-30T09:41:10.487Z,19.3
2016-09-30T09:42:09.808Z,19.56
2016-09-30T09:43:09.653Z,19.73
2016-09-30T09:44:10.464Z,20.06
2016-09-30T09:45:10.282Z,20.03
2016-09-30T09:46:09.026Z,19.91
2016-09-30T09:47:09.775Z,19.78
2016-09-30T09:48:09.988Z,19.96
2016-09-30T09:49:10.234Z,19.8
2016-09-30T09:50:10.401Z,19.92
2016-09-30T09:51:09.372Z,19.76
2016-09-30T09:52:09.483Z,19.8
2016-09-30T09:53:09.038Z,19.86
2016-09-30T09:54:09.668Z,19.49
2016-09-30T09:55:09.584Z,19.52
2016-09-30T09:56:08.995Z,19.52
2016-09-30T09:57:09.005Z,19.58
2016-09-30T09:58:09.641Z,19.7
2016-09-30T09:59:09.596Z,19.69
2016-09-30T10:00:10.264Z,19.49
2016-09-30T10:01:08.944Z,19.41
2016-09-30T10:02:09.510Z,19.48
2016-09-30T10:03:10.247Z,19.36
2016-09-30T10:04:09.786Z,19.25
2016-09-30T10:05:09.514Z,19.21
2016-09-30T10:06:10.177Z,19.11
2016-09-30T10:07:09.463Z,18.99
2016-09-30T10:08:08.863Z,18.88
2016-09-30T10:09:09.825Z,18.88
2016-09-30T10:10:09.079Z,18.97
2016-09-30T10:11:10.108Z,19.3
2016-09-30T10:12:09.388Z,19.33
2016-09-30T10:13:10.113Z,19.43
2016-09-30T10:14:09.447Z,19.06
2016-09-30T10:15:09.755Z,19.16
2016-09-30T10:16:09.254Z,19.33
2016-09-30T10:17:09.303Z,19.49
2016-09-30T10:18:08.720Z,19.28
2016-09-30T10:19:09.625Z,19.4
2016-09-30T10:20:09.214Z,19.55
2016-09-30T10:21:09.339Z,19.4
2016-09-30T10:22:09.835Z,19.58
2016-09-30T10:23:08.906Z,19.77
2016-09-30T10:24:09.872Z,20.13
2016-09-30T10:25:09.306Z,20.32
2016-09-30T10:26:09.915Z,19.92
2016-09-30T10:27:09.936Z,19.96
2016-09-30T10:28:09.275Z,20.03
2016-09-30T10:29:09.879Z,19.53
2016-09-30T10:30:08.589Z,19.76
2016-09-30T10:31:09.136Z,19.48
2016-09-30T10:32:08.544Z,19.07
2016-09-30T10:33:09.187Z,19.25
2016-09-30T10:34:09.171Z,19.22
2016-09-30T10:35:09.791Z,19.31
2016-09-30T10:36:09.146Z,19.21
2016-09-30T10:37:08.979Z,19.21
2016-09-30T10:38:09.747Z,19.33
2016-09-30T10:39:08.466Z,19.52
2016-09-30T10:40:09.053Z,19.53
2016-09-30T10:41:09.760Z,19.41
2016-09-30T10:42:09.075Z,19.44
2016-09-30T10:43:08.247Z,19.8
2016-09-30T10:44:09.087Z,19.98
2016-09-30T10:45:09.284Z,20.06
2016-09-30T10:46:09.022Z,20.08
2016-09-30T10:47:08.935Z,20.1
2016-09-30T10:48:09.651Z,19.69
2016-09-30T10:49:08.343Z,19.67
2016-09-30T10:50:09.245Z,19.92
2016-09-30T10:51:08.552Z,20.07
2016-09-30T10:52:08.947Z,20.13
2016-09-30T10:53:09.172Z,19.71
2016-09-30T10:54:08.976Z,19.61
2016-09-30T10:55:08.814Z,19.71
2016-09-30T10:56:08.878Z,19.69
2016-09-30T10:57:09.548Z,19.61
2016-09-30T10:58:09.574Z,19.41
2016-09-30T10:59:09.530Z,19.53
2016-09-30T11:00:08.738Z,19.34
2016-09-30T11:01:09.464Z,19.21
2016-09-30T11:02:08.169Z,19.34
2016-09-30T11:03:09.455Z,19.36
2016-09-30T11:04:09.467Z,19.62
2016-09-30T11:05:08.771Z,19.56
2016-09-30T11:06:09.395Z,19.38
2016-09-30T11:07:09.265Z,19.62
2016-09-30T11:08:08.668Z,19.52
2016-09-30T11:09:08.762Z,19.69
2016-09-30T11:10:08.847Z,19.91
2016-09-30T11:11:07.967Z,19.95
2016-09-30T11:12:08.765Z,19.95
2016-09-30T11:13:08.018Z,19.92
2016-09-30T11:14:08.669Z,20.1
2016-09-30T11:15:08.666Z,20.07
2016-09-30T11:16:09.307Z,20.2
2016-09-30T11:17:09.268Z,20.23
2016-09-30T11:18:09.295Z,20.23
2016-09-30T11:19:08.615Z,20.23
2016-09-30T11:20:08.226Z,19.93
2016-09-30T11:21:09.245Z,19.81
2016-09-30T11:22:09.273Z,19.92
2016-09-30T11:23:08.798Z,19.92
2016-09-30T11:24:08.605Z,19.85
2016-09-30T11:25:08.044Z,19.78
2016-09-30T11:26:09.276Z,19.88
2016-09-30T11:27:08.752Z,19.98
2016-09-30T11:28:08.508Z,20.1
2016-09-30T11:29:09.108Z,20.11
2016-09-30T11:30:08.471Z,20.32
2016-09-30T11:31:08.220Z,20.43
2016-09-30T11:32:08.709Z,20.23
2016-09-30T11:33:09.071Z,20.26
2016-09-30T11:34:08.045Z,20.38
2016-09-30T11:35:08.639Z,20.55
2016-09-30T11:36:08.402Z,20.54
2016-09-30T11:37:09.027Z,20.76
2016-09-30T11:38:07.945Z,20.62
2016-09-30T11:39:08.375Z,20.73
2016-09-30T11:40:09.032Z,20.88
2016-09-30T11:41:08.341Z,20.76
2016-09-30T11:42:08.309Z,20.72
2016-09-30T11:43:08.959Z,20.85
2016-09-30T11:44:08.564Z,20.81
2016-09-30T11:45:08.782Z,20.67
2016-09-30T11:46:08.213Z,20.78
2016-09-30T11:47:08.345Z,20.81
2016-09-30T11:48:08.245Z,20.87
2016-09-30T11:49:07.584Z,20.57
2016-09-30T11:50:08.228Z,20.48
2016-09-30T11:51:07.672Z,20.49
2016-09-30T11:52:07.471Z,20.4
2016-09-30T11:53:07.760Z,20.48
2016-09-30T11:54:08.806Z,20.43
2016-09-30T11:55:08.810Z,20.06
2016-09-30T11:56:08.172Z,20.1
2016-09-30T11:57:07.475Z,20.13
2016-09-30T11:58:08.118Z,20.17
2016-09-30T11:59:08.125Z,20.17
2016-09-30T12:00:08.105Z,19.95
2016-09-30T12:01:08.077Z,19.55
2016-09-30T12:02:07.270Z,19.55
2016-09-30T12:03:08.062Z,19.46
2016-09-30T12:04:08.704Z,19.59
2016-09-30T12:05:08.016Z,19.81
2016-09-30T12:06:08.704Z,19.95
2016-09-30T12:07:08.540Z,19.88
2016-09-30T12:08:08.512Z,20.16
2016-09-30T12:09:08.614Z,20.23
2016-09-30T12:10:07.974Z,20.22
2016-09-30T12:11:07.221Z,20.33
2016-09-30T12:12:08.587Z,20.33
2016-09-30T12:13:07.923Z,20.47
2016-09-30T12:14:07.916Z,20.51
2016-09-30T12:15:08.418Z,20.33
2016-09-30T12:16:07.154Z,20.4
2016-09-30T12:17:08.527Z,20.36
2016-09-30T12:18:08.525Z,20.54
2016-09-30T12:19:07.981Z,20.47
2016-09-30T12:20:07.747Z,20.58
2016-09-30T12:21:07.906Z,20.55
2016-09-30T12:22:08.103Z,20.52
2016-09-30T12:23:07.177Z,20.7
2016-09-30T12:24:07.784Z,20.91
2016-09-30T12:25:07.769Z,21.22
2016-09-30T12:26:08.035Z,21.17
2016-09-30T12:27:08.435Z,21.1
2016-09-30T12:28:08.396Z,20.47
2016-09-30T12:29:08.418Z,20.31
2016-09-30T12:30:07.322Z,20.69
2016-09-30T12:31:07.688Z,20.82
2016-09-30T12:32:08.332Z,21.43
2016-09-30T12:33:07.691Z,21.84
2016-09-30T12:34:07.692Z,22.73
2016-09-30T12:35:08.356Z,22.55
2016-09-30T12:36:06.990Z,22.73
2016-09-30T12:37:07.656Z,22.79
2016-09-30T12:38:07.641Z,22.5
2016-09-30T12:39:06.893Z,22.82
2016-09-30T12:40:07.529Z,22.98
2016-09-30T12:41:07.637Z,22.87
2016-09-30T12:42:07.598Z,22.12
2016-09-30T12:43:07.567Z,22.55
2016-09-30T12:44:08.185Z,23.02
2016-09-30T12:45:08.267Z,23.36
2016-09-30T12:46:06.889Z,22.99
2016-09-30T12:47:06.799Z,23.32
2016-09-30T12:48:07.503Z,22.92
2016-09-30T12:49:08.156Z,22.47
2016-09-30T12:50:08.124Z,21.84
2016-09-30T12:51:06.828Z,21.61
2016-09-30T12:52:08.105Z,21.61
2016-09-30T12:53:07.402Z,21.55
2016-09-30T12:54:07.044Z,21.5
2016-09-30T12:55:06.784Z,21.49